Time,TemperatureF,DewpointF,PressureIn,WindDirection,WindDirectionDegrees,WindSpeedMPH,WindSpeedGustMPH,Humidity,HourlyPrecipIn,Conditions,Clouds,dailyrainin,SoftwareType,DateUTC
2013-02-19 00:00:00,44.7,41.7,29.57,West,266,21.0,21.0,89,0.15,,,0.00,Wunderground v.1.15,2013-02-19 05:00:00,
2013-02-19 00:05:00,44.6,41.8,29.56,West,264,21.0,21.0,90,0.08,,,0.01,Wunderground v.1.15,2013-02-19 05:05:00,
2013-02-19 00:10:00,44.5,41.7,29.56,West,262,21.0,22.0,90,0.08,,,0.01,Wunderground v.1.15,2013-02-19 05:10:00,
2013-02-19 00:15:00,44.4,41.7,29.55,WSW,238,20.0,22.0,90,0.08,,,0.02,Wunderground v.1.15,2013-02-19 05:15:00,
2013-02-19 00:20:00,44.4,41.7,29.55,WSW,254,20.0,25.0,90,0.08,,,0.02,Wunderground v.1.15,2013-02-19 05:20:00,
2013-02-19 00:25:00,44.4,41.9,29.55,WSW,246,19.0,25.0,91,0.06,,,0.03,Wunderground v.1.15,2013-02-19 05:25:00,
2013-02-19 00:30:00,44.4,41.9,29.55,West,276,19.0,19.0,91,0.06,,,0.03,Wunderground v.1.15,2013-02-19 05:30:00,
2013-02-19 00:35:00,44.6,41.8,29.54,West,272,20.0,21.0,90,0.04,,,0.03,Wunderground v.1.15,2013-02-19 05:35:00,
2013-02-19 00:45:00,44.4,41.9,29.53,WNW,288,21.0,23.0,91,0.00,,,0.03,Wunderground v.1.15,2013-02-19 05:45:00,
2013-02-19 00:55:00,44.4,41.9,29.53,West,280,21.0,33.0,91,0.00,,,0.03,Wunderground v.1.15,2013-02-19 05:55:00,
2013-02-19 01:00:00,44.3,42.1,29.53,West,262,20.0,20.0,92,0.00,,,0.03,Wunderground v.1.15,2013-02-19 06:00:00,
2013-02-19 01:05:00,44.2,42.0,29.53,WNW,282,18.0,26.0,92,0.00,,,0.03,Wunderground v.1.15,2013-02-19 06:05:00,
2013-02-19 01:10:00,44.4,42.2,29.53,West,281,19.0,19.0,92,0.00,,,0.04,Wunderground v.1.15,2013-02-19 06:10:00,
2013-02-19 01:15:00,44.4,42.5,29.53,West,278,20.0,23.0,93,0.00,,,0.04,Wunderground v.1.15,2013-02-19 06:15:00,
2013-02-19 01:25:00,44.2,42.0,29.55,NE,39,21.0,21.0,92,0.07,,,0.06,Wunderground v.1.15,2013-02-19 06:25:00,
2013-02-19 01:30:00,43.4,40.7,29.55,NNW,332,24.0,24.0,90,0.07,,,0.06,Wunderground v.1.15,2013-02-19 06:30:00,
2013-02-19 01:35:00,41.3,38.0,29.56,NNW,340,24.0,33.0,88,0.05,,,0.06,Wunderground v.1.15,2013-02-19 06:35:00,
2013-02-19 01:45:00,37.9,34.9,29.58,West,277,22.0,33.0,89,0.04,,,0.07,Wunderground v.1.15,2013-02-19 06:45:00,
2013-02-19 01:50:00,36.4,33.7,29.58,NW,306,24.0,24.0,90,0.04,,,0.07,Wunderground v.1.15,2013-02-19 06:50:00,
2013-02-19 02:00:00,34.9,32.8,29.60,WNW,285,20.0,20.0,92,0.00,,,0.07,Wunderground v.1.15,2013-02-19 07:00:00,
2013-02-19 02:05:00,34.5,32.4,29.60,NNE,29,21.0,22.0,92,0.00,,,0.07,Wunderground v.1.15,2013-02-19 07:05:00,
2013-02-19 02:10:00,34.2,32.1,29.61,NNE,13,20.0,20.0,92,0.00,,,0.07,Wunderground v.1.15,2013-02-19 07:10:00,
2013-02-19 02:15:00,33.9,32.1,29.61,NE,52,19.0,33.0,93,0.00,,,0.07,Wunderground v.1.15,2013-02-19 07:15:00,
2013-02-19 02:20:00,33.7,31.9,29.61,SSW,192,18.0,18.0,93,0.00,,,0.07,Wunderground v.1.15,2013-02-19 07:20:00,
2013-02-19 02:30:00,33.3,31.5,29.62,NW,324,19.0,19.0,93,0.00,,,0.07,Wunderground v.1.15,2013-02-19 07:30:00,
2013-02-19 02:40:00,32.7,30.9,29.63,NE,41,20.0,33.0,93,0.00,,,0.07,Wunderground v.1.15,2013-02-19 07:40:00,
2013-02-19 02:45:00,32.7,30.9,29.63,NW,304,18.0,33.0,93,0.00,,,0.07,Wunderground v.1.15,2013-02-19 07:45:00,
2013-02-19 02:50:00,32.6,30.8,29.64,SSE,166,13.0,13.0,93,0.00,,,0.07,Wunderground v.1.15,2013-02-19 07:50:00,
2013-02-19 02:55:00,32.3,30.5,29.64,South,176,15.0,15.0,93,0.00,,,0.07,Wunderground v.1.15,2013-02-19 07:55:00,
2013-02-19 03:00:00,31.9,29.8,29.65,NNE,20,18.0,23.0,92,0.00,,,0.07,Wunderground v.1.15,2013-02-19 08:00:00,
2013-02-19 03:10:00,31.4,29.3,29.66,SE,124,15.0,15.0,92,0.00,,,0.07,Wunderground v.1.15,2013-02-19 08:10:00,
2013-02-19 03:15:00,31.2,28.9,29.66,NNW,333,16.0,18.0,91,0.00,,,0.07,Wunderground v.1.15,2013-02-19 08:15:00,
2013-02-19 03:20:00,31.0,28.7,29.66,NW,314,17.0,17.0,91,0.00,,,0.07,Wunderground v.1.15,2013-02-19 08:20:00,
2013-02-19 03:25:00,30.6,28.3,29.67,North,355,17.0,21.0,91,0.00,,,0.07,Wunderground v.1.15,2013-02-19 08:25:00,
2013-02-19 03:35:00,30.2,27.9,29.67,NNE,33,17.0,35.0,91,0.00,,,0.07,Wunderground v.1.15,2013-02-19 08:35:00,
2013-02-19 03:45:00,30.0,27.7,29.67,NW,326,17.0,23.0,91,0.00,,,0.07,Wunderground v.1.15,2013-02-19 08:45:00,
2013-02-19 03:50:00,29.7,27.4,29.67,NW,319,19.0,35.0,91,0.00,,,0.07,Wunderground v.1.15,2013-02-19 08:50:00,
2013-02-19 03:55:00,29.3,26.7,29.68,NW,318,19.0,35.0,90,0.00,,,0.08,Wunderground v.1.15,2013-02-19 08:55:00,
2013-02-19 04:00:00,29.2,26.6,29.68,SSE,160,17.0,17.0,90,0.00,,,0.08,Wunderground v.1.15,2013-02-19 09:00:00,
2013-02-19 04:05:00,28.8,26.2,29.68,NE,53,16.0,29.0,90,0.00,,,0.08,Wunderground v.1.15,2013-02-19 09:05:00,
2013-02-19 04:15:00,28.1,25.3,29.69,WNW,301,19.0,25.0,89,0.00,,,0.08,Wunderground v.1.15,2013-02-19 09:15:00,
2013-02-19 04:20:00,28.0,25.7,29.69,North,6,18.0,35.0,91,0.00,,,0.08,Wunderground v.1.15,2013-02-19 09:20:00,
2013-02-19 04:25:00,27.8,25.5,29.69,NE,34,19.0,35.0,91,0.00,,,0.08,Wunderground v.1.15,2013-02-19 09:25:00,
2013-02-19 04:30:00,27.6,25.3,29.69,NNW,345,20.0,20.0,91,0.00,,,0.08,Wunderground v.1.15,2013-02-19 09:30:00,
2013-02-19 04:40:00,27.2,24.9,29.69,NNE,12,20.0,35.0,91,0.00,,,0.08,Wunderground v.1.15,2013-02-19 09:40:00,
2013-02-19 04:50:00,26.5,24.0,29.69,SSE,165,21.0,35.0,90,0.00,,,0.08,Wunderground v.1.15,2013-02-19 09:50:00,
2013-02-19 04:55:00,26.3,23.8,29.70,NE,37,21.0,35.0,90,0.00,,,0.08,Wunderground v.1.15,2013-02-19 09:55:00,
2013-02-19 05:00:00,26.2,23.7,29.70,ENE,73,20.0,35.0,90,0.00,,,0.08,Wunderground v.1.15,2013-02-19 10:00:00,
2013-02-19 05:05:00,26.1,23.6,29.70,SSW,211,20.0,35.0,90,0.00,,,0.08,Wunderground v.1.15,2013-02-19 10:05:00,
2013-02-19 05:10:00,26.0,23.2,29.70,North,11,19.0,19.0,89,0.00,,,0.08,Wunderground v.1.15,2013-02-19 10:10:00,
2013-02-19 05:15:00,25.7,22.9,29.70,NW,323,16.0,35.0,89,0.00,,,0.08,Wunderground v.1.15,2013-02-19 10:15:00,
2013-02-19 05:20:00,25.5,22.7,29.71,WNW,297,16.0,16.0,89,0.00,,,0.08,Wunderground v.1.15,2013-02-19 10:20:00,
2013-02-19 05:25:00,25.5,22.7,29.71,SSW,200,16.0,17.0,89,0.00,,,0.08,Wunderground v.1.15,2013-02-19 10:25:00,
2013-02-19 05:35:00,24.7,21.4,29.72,NNW,336,23.0,35.0,87,0.00,,,0.08,Wunderground v.1.15,2013-02-19 10:35:00,
2013-02-19 05:40:00,24.5,21.2,29.72,East,84,23.0,23.0,87,0.00,,,0.08,Wunderground v.1.15,2013-02-19 10:40:00,
2013-02-19 05:45:00,24.4,21.4,29.72,SW,218,20.0,35.0,88,0.00,,,0.08,Wunderground v.1.15,2013-02-19 10:45:00,
2013-02-19 05:50:00,24.4,21.1,29.72,SSE,159,18.0,35.0,87,0.00,,,0.08,Wunderground v.1.15,2013-02-19 10:50:00,
2013-02-19 06:00:00,24.6,21.6,29.73,NW,319,16.0,16.0,88,0.00,,,0.08,Wunderground v.1.15,2013-02-19 11:00:00,
2013-02-19 06:05:00,24.4,21.4,29.73,SSE,158,17.0,25.0,88,0.00,,,0.08,Wunderground v.1.15,2013-02-19 11:05:00,
2013-02-19 06:10:00,24.3,21.3,29.74,ENE,76,18.0,35.0,88,0.00,,,0.08,Wunderground v.1.15,2013-02-19 11:10:00,
2013-02-19 06:15:00,23.8,20.2,29.74,WNW,293,20.0,35.0,86,0.00,,,0.08,Wunderground v.1.15,2013-02-19 11:15:00,
2013-02-19 06:20:00,23.4,19.6,29.75,NW,324,23.0,23.0,85,0.00,,,0.08,Wunderground v.1.15,2013-02-19 11:20:00,
2013-02-19 06:30:00,23.1,19.3,29.75,SSW,207,23.0,35.0,85,0.00,,,0.08,Wunderground v.1.15,2013-02-19 11:30:00,
2013-02-19 06:40:00,22.9,18.8,29.75,NW,325,21.0,21.0,84,0.00,,,0.08,Wunderground v.1.15,2013-02-19 11:40:00,
2013-02-19 06:45:00,22.9,18.8,29.76,NE,46,18.0,35.0,84,0.00,,,0.08,Wunderground v.1.15,2013-02-19 11:45:00,
2013-02-19 06:50:00,22.6,19.0,29.76,SSE,153,16.0,35.0,86,0.00,,,0.09,Wunderground v.1.15,2013-02-19 11:50:00,
2013-02-19 06:55:00,22.4,18.6,29.76,NW,316,18.0,35.0,85,0.00,,,0.09,Wunderground v.1.15,2013-02-19 11:55:00,
2013-02-19 07:00:00,22.3,18.7,29.77,SE,132,19.0,19.0,86,0.00,,,0.09,Wunderground v.1.15,2013-02-19 12:00:00,
2013-02-19 07:10:00,22.1,18.8,29.77,NW,323,17.0,25.0,87,0.04,,,0.10,Wunderground v.1.15,2013-02-19 12:10:00,
2013-02-19 07:15:00,22.1,18.6,29.77,NW,306,16.0,26.0,86,0.04,,,0.10,Wunderground v.1.15,2013-02-19 12:15:00,
2013-02-19 07:25:00,21.8,18.0,29.77,North,351,18.0,18.0,85,0.00,,,0.10,Wunderground v.1.15,2013-02-19 12:25:00,
2013-02-19 07:30:00,21.8,18.0,29.77,NNW,333,19.0,19.0,85,0.00,,,0.11,Wunderground v.1.15,2013-02-19 12:30:00,
2013-02-19 07:35:00,21.7,17.6,29.78,West,274,19.0,39.0,84,0.00,,,0.11,Wunderground v.1.15,2013-02-19 12:35:00,
2013-02-19 07:40:00,21.6,17.5,29.78,NNW,334,20.0,20.0,84,0.00,,,0.11,Wunderground v.1.15,2013-02-19 12:40:00,
2013-02-19 07:45:00,21.6,17.8,29.78,NW,306,18.0,39.0,85,0.00,,,0.11,Wunderground v.1.15,2013-02-19 12:45:00,
2013-02-19 07:50:00,21.5,17.7,29.78,South,186,16.0,16.0,85,0.00,,,0.11,Wunderground v.1.15,2013-02-19 12:50:00,
2013-02-19 07:55:00,21.5,17.7,29.78,West,262,16.0,39.0,85,0.17,,,0.13,Wunderground v.1.15,2013-02-19 12:55:00,
2013-02-19 08:00:00,21.5,17.4,29.79,NW,311,15.0,39.0,84,0.07,,,0.13,Wunderground v.1.15,2013-02-19 13:00:00,
2013-02-19 08:05:00,21.3,16.9,29.79,WNW,299,14.0,39.0,83,0.04,,,0.13,Wunderground v.1.15,2013-02-19 13:05:00,
2013-02-19 08:15:00,21.1,17.6,29.79,NW,305,15.0,39.0,86,0.00,,,0.13,Wunderground v.1.15,2013-02-19 13:15:00,
2013-02-19 08:20:00,20.9,17.1,29.79,WSW,257,17.0,17.0,85,0.00,,,0.13,Wunderground v.1.15,2013-02-19 13:20:00,
2013-02-19 08:25:00,21.0,17.2,29.80,NNW,339,18.0,22.0,85,0.00,,,0.13,Wunderground v.1.15,2013-02-19 13:25:00,
2013-02-19 08:30:00,21.0,17.2,29.80,NW,323,15.0,39.0,85,0.00,,,0.13,Wunderground v.1.15,2013-02-19 13:30:00,
2013-02-19 08:35:00,20.9,17.4,29.80,WNW,291,15.0,39.0,86,0.00,,,0.13,Wunderground v.1.15,2013-02-19 13:35:00,
2013-02-19 08:40:00,20.3,16.8,29.80,WNW,300,19.0,39.0,86,0.00,,,0.13,Wunderground v.1.15,2013-02-19 13:40:00,
2013-02-19 08:50:00,19.5,15.5,29.81,North,5,20.0,39.0,84,0.28,,,0.17,Wunderground v.1.15,2013-02-19 13:50:00,
2013-02-19 08:55:00,19.2,14.6,29.82,NW,322,20.0,39.0,82,0.15,,,0.18,Wunderground v.1.15,2013-02-19 13:55:00,
2013-02-19 09:00:00,19.2,14.3,29.82,WSW,245,20.0,39.0,81,0.07,,,0.18,Wunderground v.1.15,2013-02-19 14:00:00,
2013-02-19 09:05:00,19.1,14.5,29.82,ENE,61,18.0,39.0,82,0.06,,,0.19,Wunderground v.1.15,2013-02-19 14:05:00,
2013-02-19 09:15:00,19.1,14.2,29.82,NNE,13,17.0,24.0,81,0.04,,,0.19,Wunderground v.1.15,2013-02-19 14:15:00,
2013-02-19 09:25:00,19.3,15.0,29.82,South,187,15.0,39.0,83,0.00,,,0.19,Wunderground v.1.15,2013-02-19 14:25:00,
2013-02-19 09:30:00,19.4,15.1,29.82,NNW,340,15.0,39.0,83,0.00,,,0.19,Wunderground v.1.15,2013-02-19 14:30:00,
2013-02-19 09:35:00,19.3,14.7,29.83,NNW,329,17.0,39.0,82,0.00,,,0.19,Wunderground v.1.15,2013-02-19 14:35:00,
2013-02-19 09:40:00,19.2,15.4,29.83,North,1,18.0,18.0,85,0.00,,,0.19,Wunderground v.1.15,2013-02-19 14:40:00,
2013-02-19 09:45:00,19.1,15.1,29.83,NW,311,17.0,20.0,84,0.00,,,0.19,Wunderground v.1.15,2013-02-19 14:45:00,
2013-02-19 09:55:00,18.5,14.5,29.83,WNW,297,19.0,39.0,84,0.00,,,0.20,Wunderground v.1.15,2013-02-19 14:55:00,
2013-02-19 10:00:00,18.4,14.4,29.83,North,4,22.0,22.0,84,0.12,,,0.21,Wunderground v.1.15,2013-02-19 15:00:00,
2013-02-19 10:10:00,18.6,15.1,29.84,NNW,333,14.0,14.0,86,0.04,,,0.21,Wunderground v.1.15,2013-02-19 15:10:00,
2013-02-19 10:15:00,18.6,14.3,29.84,NNW,341,14.0,29.0,83,0.00,,,0.21,Wunderground v.1.15,2013-02-19 15:15:00,
2013-02-19 10:20:00,18.7,14.1,29.85,SSW,210,16.0,16.0,82,0.00,,,0.21,Wunderground v.1.15,2013-02-19 15:20:00,
2013-02-19 10:30:00,18.7,14.7,29.85,WNW,290,19.0,19.0,84,0.00,,,0.21,Wunderground v.1.15,2013-02-19 15:30:00,
2013-02-19 10:35:00,18.5,14.2,29.85,NNW,345,19.0,36.0,83,0.00,,,0.21,Wunderground v.1.15,2013-02-19 15:35:00,
2013-02-19 10:40:00,18.4,13.0,29.85,North,350,21.0,36.0,79,0.00,,,0.21,Wunderground v.1.15,2013-02-19 15:40:00,
2013-02-19 10:45:00,18.7,13.3,29.85,North,349,22.0,36.0,79,0.00,,,0.21,Wunderground v.1.15,2013-02-19 15:45:00,
2013-02-19 10:50:00,19.0,13.6,29.85,NW,316,21.0,36.0,79,0.00,,,0.21,Wunderground v.1.15,2013-02-19 15:50:00,
2013-02-19 10:55:00,19.1,14.2,29.85,NNW,332,20.0,36.0,81,0.00,,,0.21,Wunderground v.1.15,2013-02-19 15:55:00,
2013-02-19 11:05:00,18.6,14.0,29.86,NNE,22,18.0,23.0,82,0.00,,,0.21,Wunderground v.1.15,2013-02-19 16:05:00,
2013-02-19 11:10:00,18.1,14.4,29.86,NNW,336,18.0,18.0,85,0.00,,,0.21,Wunderground v.1.15,2013-02-19 16:10:00,
2013-02-19 11:15:00,17.8,14.3,29.87,SSW,195,15.0,36.0,86,0.00,,,0.21,Wunderground v.1.15,2013-02-19 16:15:00,
2013-02-19 11:20:00,17.5,13.8,29.87,North,352,16.0,36.0,85,0.00,,,0.22,Wunderground v.1.15,2013-02-19 16:20:00,
2013-02-19 11:25:00,16.9,13.2,29.87,NNW,347,18.0,36.0,85,0.00,,,0.22,Wunderground v.1.15,2013-02-19 16:25:00,
2013-02-19 11:30:00,16.8,12.5,29.88,South,180,19.0,36.0,83,0.06,,,0.23,Wunderground v.1.15,2013-02-19 16:30:00,
2013-02-19 11:40:00,16.2,10.8,29.88,NE,51,22.0,36.0,79,0.05,,,0.23,Wunderground v.1.15,2013-02-19 16:40:00,
2013-02-19 11:45:00,16.2,10.8,29.89,South,177,24.0,36.0,79,0.04,,,0.23,Wunderground v.1.15,2013-02-19 16:45:00,
2013-02-19 11:50:00,16.3,10.6,29.89,North,358,21.0,21.0,78,0.00,,,0.23,Wunderground v.1.15,2013-02-19 16:50:00,
2013-02-19 11:55:00,16.4,11.0,29.89,NE,52,21.0,36.0,79,0.00,,,0.23,Wunderground v.1.15,2013-02-19 16:55:00,
2013-02-19 12:00:00,16.6,11.5,29.89,North,358,22.0,29.0,80,0.00,,,0.23,Wunderground v.1.15,2013-02-19 17:00:00,
2013-02-19 12:10:00,16.8,11.7,29.90,NNE,16,22.0,22.0,80,0.00,,,0.24,Wunderground v.1.15,2013-02-19 17:10:00,
2013-02-19 12:15:00,17.2,11.8,29.90,NE,41,20.0,24.0,79,0.13,,,0.25,Wunderground v.1.15,2013-02-19 17:15:00,
2013-02-19 12:20:00,17.4,12.0,29.90,WNW,285,19.0,19.0,79,0.06,,,0.25,Wunderground v.1.15,2013-02-19 17:20:00,
2013-02-19 12:25:00,17.4,11.4,29.90,SSE,162,21.0,21.0,77,0.04,,,0.25,Wunderground v.1.15,2013-02-19 17:25:00,
2013-02-19 12:30:00,17.5,12.1,29.90,East,84,21.0,30.0,79,0.00,,,0.25,Wunderground v.1.15,2013-02-19 17:30:00,
2013-02-19 12:35:00,17.9,12.8,29.90,WNW,291,19.0,30.0,80,0.00,,,0.25,Wunderground v.1.15,2013-02-19 17:35:00,
2013-02-19 12:45:00,17.7,12.0,29.90,NE,46,21.0,21.0,78,0.00,,,0.25,Wunderground v.1.15,2013-02-19 17:45:00,
2013-02-19 12:50:00,17.5,12.1,29.90,ENE,77,20.0,20.0,79,0.00,,,0.25,Wunderground v.1.15,2013-02-19 17:50:00,
2013-02-19 12:55:00,17.6,12.8,29.90,WNW,283,18.0,20.0,81,0.00,,,0.25,Wunderground v.1.15,2013-02-19 17:55:00,
2013-02-19 13:05:00,17.5,13.8,29.90,NW,319,16.0,24.0,85,0.00,,,0.25,Wunderground v.1.15,2013-02-19 18:05:00,
2013-02-19 13:10:00,17.3,13.3,29.90,SW,225,16.0,39.0,84,0.00,,,0.25,Wunderground v.1.15,2013-02-19 18:10:00,
2013-02-19 13:20:00,17.4,11.7,29.90,NNW,333,20.0,39.0,78,0.00,,,0.25,Wunderground v.1.15,2013-02-19 18:20:00,
2013-02-19 13:25:00,17.6,11.9,29.91,ENE,61,21.0,39.0,78,0.00,,,0.25,Wunderground v.1.15,2013-02-19 18:25:00,
2013-02-19 13:30:00,17.8,11.8,29.91,NE,42,21.0,21.0,77,0.00,,,0.25,Wunderground v.1.15,2013-02-19 18:30:00,
2013-02-19 13:35:00,17.5,11.8,29.91,North,9,21.0,25.0,78,0.00,,,0.25,Wunderground v.1.15,2013-02-19 18:35:00,
2013-02-19 13:40:00,17.6,12.5,29.91,SSW,200,21.0,21.0,80,0.00,,,0.25,Wunderground v.1.15,2013-02-19 18:40:00,
2013-02-19 13:45:00,17.8,12.7,29.91,ENE,76,18.0,23.0,80,0.00,,,0.25,Wunderground v.1.15,2013-02-19 18:45:00,
2013-02-19 13:55:00,17.4,12.8,29.92,NE,44,16.0,39.0,82,0.00,,,0.25,Wunderground v.1.15,2013-02-19 18:55:00,
2013-02-19 14:00:00,17.7,12.6,29.92,NE,41,16.0,16.0,80,0.00,,,0.25,Wunderground v.1.15,2013-02-19 19:00:00,
2013-02-19 14:10:00,17.1,12.6,29.93,North,5,19.0,27.0,82,0.00,,,0.25,Wunderground v.1.15,2013-02-19 19:10:00,
2013-02-19 14:15:00,16.7,11.6,29.93,NE,56,21.0,27.0,80,0.00,,,0.25,Wunderground v.1.15,2013-02-19 19:15:00,
2013-02-19 14:20:00,16.4,11.0,29.94,WSW,255,21.0,21.0,79,0.00,,,0.25,Wunderground v.1.15,2013-02-19 19:20:00,
2013-02-19 14:30:00,16.3,10.9,29.94,NW,316,18.0,18.0,79,0.00,,,0.26,Wunderground v.1.15,2013-02-19 19:30:00,
2013-02-19 14:35:00,16.2,11.1,29.95,NW,305,20.0,20.0,80,0.00,,,0.26,Wunderground v.1.15,2013-02-19 19:35:00,
2013-02-19 14:40:00,16.2,11.1,29.95,South,179,20.0,20.0,80,0.00,,,0.26,Wunderground v.1.15,2013-02-19 19:40:00,
2013-02-19 14:45:00,16.1,11.0,29.95,NNE,13,20.0,27.0,80,0.00,,,0.26,Wunderground v.1.15,2013-02-19 19:45:00,
2013-02-19 14:50:00,16.1,10.7,29.95,North,354,22.0,35.0,79,0.00,,,0.26,Wunderground v.1.15,2013-02-19 19:50:00,
2013-02-19 15:00:00,15.9,10.8,29.96,ESE,102,21.0,21.0,80,0.00,,,0.26,Wunderground v.1.15,2013-02-19 20:00:00,
2013-02-19 15:10:00,15.9,10.8,29.97,NNE,29,21.0,21.0,80,0.00,,,0.26,Wunderground v.1.15,2013-02-19 20:10:00,
2013-02-19 15:15:00,15.9,10.5,29.97,ENE,78,20.0,35.0,79,0.00,,,0.26,Wunderground v.1.15,2013-02-19 20:15:00,
2013-02-19 15:20:00,15.8,9.9,29.97,SE,132,19.0,19.0,77,0.00,,,0.26,Wunderground v.1.15,2013-02-19 20:20:00,
2013-02-19 15:25:00,15.6,10.0,29.98,WNW,302,20.0,20.0,78,0.00,,,0.26,Wunderground v.1.15,2013-02-19 20:25:00,
2013-02-19 15:35:00,15.6,10.5,29.98,North,349,18.0,35.0,80,0.00,,,0.26,Wunderground v.1.15,2013-02-19 20:35:00,
2013-02-19 15:40:00,15.4,10.1,29.99,South,169,17.0,35.0,79,0.00,,,0.26,Wunderground v.1.15,2013-02-19 20:40:00,
2013-02-19 15:45:00,15.3,10.5,29.99,South,191,18.0,35.0,81,0.00,,,0.26,Wunderground v.1.15,2013-02-19 20:45:00,
2013-02-19 15:50:00,15.3,9.7,29.99,North,352,19.0,19.0,78,0.00,,,0.26,Wunderground v.1.15,2013-02-19 20:50:00,
2013-02-19 15:55:00,15.3,9.7,30.00,WSW,252,20.0,20.0,78,0.00,,,0.26,Wunderground v.1.15,2013-02-19 20:55:00,
2013-02-19 16:00:00,15.4,9.8,30.00,West,259,19.0,19.0,78,0.00,,,0.26,Wunderground v.1.15,2013-02-19 21:00:00,
2013-02-19 16:10:00,15.2,9.9,30.00,NNW,342,21.0,23.0,79,0.00,,,0.26,Wunderground v.1.15,2013-02-19 21:10:00,
2013-02-19 16:15:00,15.3,9.1,30.01,NNW,336,20.0,24.0,76,0.00,,,0.27,Wunderground v.1.15,2013-02-19 21:15:00,
2013-02-19 16:20:00,15.2,9.3,30.01,ENE,77,21.0,28.0,77,0.00,,,0.27,Wunderground v.1.15,2013-02-19 21:20:00,
2013-02-19 16:25:00,15.2,9.3,30.01,NNW,341,22.0,28.0,77,0.00,,,0.27,Wunderground v.1.15,2013-02-19 21:25:00,
2013-02-19 16:35:00,15.2,9.9,30.02,East,89,18.0,21.0,79,0.00,,,0.27,Wunderground v.1.15,2013-02-19 21:35:00,
2013-02-19 16:40:00,15.1,9.8,30.02,NNE,22,19.0,19.0,79,0.00,,,0.27,Wunderground v.1.15,2013-02-19 21:40:00,
2013-02-19 16:45:00,15.2,9.3,30.03,ESE,109,20.0,20.0,77,0.00,,,0.27,Wunderground v.1.15,2013-02-19 21:45:00,
2013-02-19 16:50:00,15.1,9.8,30.03,NNW,347,20.0,20.0,79,0.00,,,0.27,Wunderground v.1.15,2013-02-19 21:50:00,
2013-02-19 17:00:00,14.7,9.1,30.04,NW,325,20.0,28.0,78,0.00,,,0.27,Wunderground v.1.15,2013-02-19 22:00:00,
2013-02-19 17:05:00,14.7,8.8,30.04,ENE,69,20.0,34.0,77,0.00,,,0.27,Wunderground v.1.15,2013-02-19 22:05:00,
2013-02-19 17:10:00,14.7,8.8,30.04,East,82,19.0,19.0,77,0.00,,,0.27,Wunderground v.1.15,2013-02-19 22:10:00,
2013-02-19 17:20:00,14.8,9.7,30.05,NNE,13,16.0,34.0,80,0.00,,,0.27,Wunderground v.1.15,2013-02-19 22:20:00,
2013-02-19 17:25:00,14.7,9.1,30.05,SE,131,18.0,34.0,78,0.00,,,0.27,Wunderground v.1.15,2013-02-19 22:25:00,
2013-02-19 17:30:00,14.7,9.4,30.06,NNE,15,18.0,18.0,79,0.00,,,0.27,Wunderground v.1.15,2013-02-19 22:30:00,
2013-02-19 17:35:00,14.9,9.8,30.06,ENE,57,16.0,20.0,80,0.00,,,0.27,Wunderground v.1.15,2013-02-19 22:35:00,
2013-02-19 17:40:00,14.8,9.2,30.06,NNE,19,16.0,34.0,78,0.00,,,0.27,Wunderground v.1.15,2013-02-19 22:40:00,
2013-02-19 17:45:00,14.7,9.4,30.06,North,355,18.0,34.0,79,0.00,,,0.27,Wunderground v.1.15,2013-02-19 22:45:00,
2013-02-19 17:55:00,14.5,9.5,30.07,North,7,18.0,19.0,80,0.00,,,0.27,Wunderground v.1.15,2013-02-19 22:55:00,
2013-02-19 18:05:00,14.5,9.2,30.08,ENE,68,17.0,18.0,79,0.00,,,0.27,Wunderground v.1.15,2013-02-19 23:05:00,
2013-02-19 18:10:00,14.5,8.9,30.08,NW,314,16.0,16.0,78,0.00,,,0.27,Wunderground v.1.15,2013-02-19 23:10:00,
2013-02-19 18:15:00,14.5,8.9,30.08,West,277,18.0,18.0,78,0.00,,,0.27,Wunderground v.1.15,2013-02-19 23:15:00,
2013-02-19 18:20:00,14.5,9.2,30.08,East,90,19.0,19.0,79,0.00,,,0.27,Wunderground v.1.15,2013-02-19 23:20:00,
2013-02-19 18:30:00,14.4,9.6,30.09,NNW,334,17.0,17.0,81,0.00,,,0.27,Wunderground v.1.15,2013-02-19 23:30:00,
2013-02-19 18:35:00,14.4,9.9,30.09,NNE,16,16.0,21.0,82,0.00,,,0.27,Wunderground v.1.15,2013-02-19 23:35:00,
2013-02-19 18:40:00,14.4,9.1,30.09,SSE,155,16.0,35.0,79,0.00,,,0.27,Wunderground v.1.15,2013-02-19 23:40:00,
2013-02-19 18:45:00,14.4,9.1,30.10,WSW,238,16.0,35.0,79,0.00,,,0.27,Wunderground v.1.15,2013-02-19 23:45:00,
2013-02-19 18:50:00,14.4,9.4,30.10,ENE,72,17.0,35.0,80,0.00,,,0.27,Wunderground v.1.15,2013-02-19 23:50:00,
2013-02-19 19:00:00,14.4,9.6,30.10,ENE,65,16.0,16.0,81,0.00,,,0.27,Wunderground v.1.15,2013-02-20 00:00:00,
2013-02-19 19:10:00,14.5,10.0,30.11,SE,131,14.0,14.0,82,0.00,,,0.27,Wunderground v.1.15,2013-02-20 00:10:00,
2013-02-19 19:15:00,14.5,10.3,30.11,ENE,67,13.0,16.0,83,0.00,,,0.27,Wunderground v.1.15,2013-02-20 00:15:00,
2013-02-19 19:20:00,14.5,10.3,30.11,East,99,13.0,35.0,83,0.00,,,0.27,Wunderground v.1.15,2013-02-20 00:20:00,
2013-02-19 19:25:00,14.5,9.7,30.11,ENE,68,17.0,35.0,81,0.00,,,0.27,Wunderground v.1.15,2013-02-20 00:25:00,
2013-02-19 19:30:00,14.6,10.1,30.11,NNW,345,17.0,17.0,82,0.00,,,0.27,Wunderground v.1.15,2013-02-20 00:30:00,
2013-02-19 19:40:00,14.8,9.5,30.12,NE,40,16.0,35.0,79,0.00,,,0.27,Wunderground v.1.15,2013-02-20 00:40:00,
2013-02-19 19:45:00,14.8,9.7,30.12,SW,225,15.0,35.0,80,0.00,,,0.27,Wunderground v.1.15,2013-02-20 00:45:00,
2013-02-19 19:50:00,14.7,9.6,30.12,NNE,12,16.0,35.0,80,0.00,,,0.27,Wunderground v.1.15,2013-02-20 00:50:00,
2013-02-19 19:55:00,14.7,9.9,30.12,NNW,332,16.0,35.0,81,0.00,,,0.27,Wunderground v.1.15,2013-02-20 00:55:00,
2013-02-19 20:05:00,14.8,10.3,30.13,NE,41,14.0,18.0,82,0.00,,,0.27,Wunderground v.1.15,2013-02-20 01:05:00,
2013-02-19 20:15:00,14.6,10.1,30.13,NNW,343,14.0,19.0,82,0.00,,,0.27,Wunderground v.1.15,2013-02-20 01:15:00,
2013-02-19 20:20:00,14.4,10.4,30.13,NNE,24,14.0,22.0,84,0.00,,,0.27,Wunderground v.1.15,2013-02-20 01:20:00,
2013-02-19 20:25:00,14.4,10.4,30.14,NNE,26,15.0,22.0,84,0.00,,,0.27,Wunderground v.1.15,2013-02-20 01:25:00,
2013-02-19 20:30:00,14.5,10.3,30.13,North,356,14.0,19.0,83,0.00,,,0.27,Wunderground v.1.15,2013-02-20 01:30:00,
2013-02-19 20:35:00,14.5,10.3,30.13,East,81,12.0,28.0,83,0.00,,,0.27,Wunderground v.1.15,2013-02-20 01:35:00,
2013-02-19 20:45:00,14.8,10.6,30.14,NW,314,11.0,28.0,83,0.00,,,0.27,Wunderground v.1.15,2013-02-20 01:45:00,
2013-02-19 20:50:00,14.8,10.3,30.14,North,356,11.0,28.0,82,0.00,,,0.27,Wunderground v.1.15,2013-02-20 01:50:00,
2013-02-19 20:55:00,14.7,10.5,30.14,NNW,330,11.0,28.0,83,0.00,,,0.27,Wunderground v.1.15,2013-02-20 01:55:00,
2013-02-19 21:05:00,14.6,10.4,30.15,NNE,24,12.0,28.0,83,0.00,,,0.27,Wunderground v.1.15,2013-02-20 02:05:00,
2013-02-19 21:10:00,14.5,10.3,30.15,NNE,32,13.0,13.0,83,0.00,,,0.27,Wunderground v.1.15,2013-02-20 02:10:00,
2013-02-19 21:20:00,14.5,10.5,30.15,SSE,156,13.0,13.0,84,0.00,,,0.27,Wunderground v.1.15,2013-02-20 02:20:00,
2013-02-19 21:25:00,14.4,10.4,30.15,SW,233,13.0,14.0,84,0.00,,,0.27,Wunderground v.1.15,2013-02-20 02:25:00,
2013-02-19 21:30:00,14.4,10.4,30.15,ENE,62,14.0,28.0,84,0.00,,,0.27,Wunderground v.1.15,2013-02-20 02:30:00,
2013-02-19 21:35:00,14.3,10.4,30.15,NW,311,14.0,28.0,84,0.00,,,0.27,Wunderground v.1.15,2013-02-20 02:35:00,
2013-02-19 21:40:00,14.2,10.0,30.15,NNE,16,15.0,15.0,83,0.00,,,0.27,Wunderground v.1.15,2013-02-20 02:40:00,
2013-02-19 21:45:00,14.2,10.0,30.15,South,174,15.0,28.0,83,0.00,,,0.27,Wunderground v.1.15,2013-02-20 02:45:00,
2013-02-19 21:55:00,14.2,10.3,30.15,SSW,201,12.0,28.0,84,0.00,,,0.27,Wunderground v.1.15,2013-02-20 02:55:00,
2013-02-19 22:05:00,14.3,10.1,30.16,NNW,327,11.0,12.0,83,0.00,,,0.27,Wunderground v.1.15,2013-02-20 03:05:00,
2013-02-19 22:10:00,14.3,10.4,30.16,ENE,70,11.0,11.0,84,0.00,,,0.27,Wunderground v.1.15,2013-02-20 03:10:00,
2013-02-19 22:15:00,14.4,10.2,30.16,NE,52,11.0,11.0,83,0.00,,,0.27,Wunderground v.1.15,2013-02-20 03:15:00,
2013-02-19 22:20:00,14.5,10.3,30.16,SE,135,12.0,12.0,83,0.00,,,0.27,Wunderground v.1.15,2013-02-20 03:20:00,
2013-02-19 22:30:00,14.6,10.4,30.17,ESE,115,10.0,11.0,83,0.00,,,0.27,Wunderground v.1.15,2013-02-20 03:30:00,
2013-02-19 22:35:00,14.7,10.5,30.17,ENE,60,10.0,16.0,83,0.00,,,0.27,Wunderground v.1.15,2013-02-20 03:35:00,
2013-02-19 22:40:00,14.7,10.5,30.17,NNW,341,10.0,10.0,83,0.00,,,0.27,Wunderground v.1.15,2013-02-20 03:40:00,
2013-02-19 22:45:00,14.7,10.5,30.17,East,88,11.0,11.0,83,0.00,,,0.27,Wunderground v.1.15,2013-02-20 03:45:00,
2013-02-19 22:55:00,14.7,10.2,30.17,North,11,11.0,12.0,82,0.00,,,0.27,Wunderground v.1.15,2013-02-20 03:55:00,
2013-02-19 23:05:00,14.7,10.2,30.17,NE,51,14.0,28.0,82,0.00,,,0.27,Wunderground v.1.15,2013-02-20 04:05:00,
2013-02-19 23:10:00,14.8,10.3,30.17,NNE,16,14.0,14.0,82,0.00,,,0.27,Wunderground v.1.15,2013-02-20 04:10:00,
2013-02-19 23:15:00,14.8,10.3,30.17,SW,229,13.0,28.0,82,0.00,,,0.27,Wunderground v.1.15,2013-02-20 04:15:00,
2013-02-19 23:20:00,14.7,10.5,30.17,NE,41,11.0,28.0,83,0.00,,,0.27,Wunderground v.1.15,2013-02-20 04:20:00,
2013-02-19 23:25:00,14.7,10.7,30.17,NNW,343,11.0,28.0,84,0.00,,,0.27,Wunderground v.1.15,2013-02-20 04:25:00,
2013-02-19 23:35:00,14.6,10.4,30.17,West,277,12.0,28.0,83,0.00,,,0.27,Wunderground v.1.15,2013-02-20 04:35:00,
2013-02-19 23:40:00,14.7,10.5,30.17,NE,40,11.0,11.0,83,0.00,,,0.27,Wunderground v.1.15,2013-02-20 04:40:00,
2013-02-19 23:45:00,14.7,10.5,30.17,North,11,10.0,12.0,83,0.00,,,0.27,Wunderground v.1.15,2013-02-20 04:45:00,
2013-02-19 23:50:00,14.7,10.2,30.17,NNW,329,11.0,11.0,82,0.00,,,0.27,Wunderground v.1.15,2013-02-20 04:50:00,